Table Name: State3_h

TimeStamp Record AirTF_Avg WindCh_Avg HeatIn_Avg AirTD_F_Avg RH BP_mbar_Avg Rain_in_Tot Wnd_mph WindDir NetSW_Avg NetLW_Avg NetRad_Avg AirF_0m_Avg Snow_Dp Soil_temp_Avg VWC_Avg
2022-01-24 10:00:00.0 16383 20.35 18.37 20.35 13.54 68.9 1012.751 0 4.034 168.5 20.49 -6.84 13.65 20.1 66 0.807 0.37
2022-01-24 11:00:00.0 16384 23.64 22.17 23.64 14.15 64.02 1011.926 0 0.57 218.9 43.83 -10.14 33.69 25.37 66 0.806 0.37
2022-01-24 12:00:00.0 16385 26.71 23.96 26.71 15.81 61.86 1011.246 0 7.234 201.7 37.56 -3.453 34.11 28.88 66 0.799 0.37
2022-01-24 13:00:00.0 16386 28.21 24.1 28.21 17.75 63.73 1010.191 0 5.963 177.4 32.41 -5.216 27.19 30.15 66 0.795 0.37
2022-01-24 14:00:00.0 16387 29.01 25.94 29.01 19.99 75.85 1009.339 0 1.052 181.5 21.22 -5.009 16.21 30.34 66 0.8 0.37
2022-01-24 15:00:00.0 16388 29.06 26.89 29.06 23.65 81.6 1008.369 0 0 172.3 22.14 -4.355 17.78 30.36 66 0.795 0.37
2022-01-24 16:00:00.0 16389 29.99 28.69 29.99 26 88 1007.824 0 0.307 197 16.33 -2.391 13.94 31.4 66 0.796 0.37
2022-01-24 17:00:00.0 16390 30.85 30.78 30.85 28.07 90.3 1007.854 0 0 180.9 6.778 1.087 7.865 31.73 66 0.792 0.37
2022-01-24 18:00:00.0 16391 31.35 31.35 31.35 29.01 91.4 1008.007 0.01 0 154 0.236 0.971 1.207 31.69 66 0.799 0.37
2022-01-24 19:00:00.0 16392 31.34 31.34 31.34 29.21 92.1 1008.585 0.01 0 150 -0.211 0.489 0.277 31.46 66 0.797 0.37
2022-01-24 20:00:00.0 16393 31.16 31.16 31.16 29.19 92.5 1009.048 0.01 0 150.1 -0.063 0.178 0.115 31.27 66 0.8 0.369
2022-01-24 21:00:00.0 16394 31.8 31.8 31.8 29.94 92.9 1009.743 0.01 0 291.5 -0.273 -0.391 -0.664 31.62 66 0.801 0.369
2022-01-24 22:00:00.0 16395 32.55 32.55 32.55 30.75 92.9 1010.487 0.02 0 279.8 -0.823 -0.607 -1.43 31.98 66 0.801 0.369
2022-01-24 23:00:00.0 16396 32.25 32.25 32.25 30.46 93 1011.127 0.01 0 301.5 -0.454 -0.297 -0.751 32 66 0.799 0.37
2022-01-25 00:00:00.0 16397 31.98 31.98 31.98 30.22 93.2 1011.338 0.01 0 301.6 -0.167 -0.074 -0.241 32 66 0.798 0.369
2022-01-25 01:00:00.0 16398 32.05 32.05 32.05 30.33 93.3 1011.526 0.01 0 301.6 -0.241 -0.108 -0.349 32 66 0.8 0.369
2022-01-25 02:00:00.0 16399 32.35 32.35 32.35 30.68 93.5 1011.807 0.01 0 282.4 -0.663 -0.428 -1.091 32 66 0.8 0.369
2022-01-25 03:00:00.0 16400 32.98 32.36 32.98 30.97 89.3 1012.808 0.01 0.745 294.1 -1.325 -1.829 -3.155 32.12 66 0.804 0.369
2022-01-25 04:00:00.0 16401 31.33 26.7 31.33 27.59 85.1 1014.169 0.01 7.76 347.2 -0.905 -0.9 -1.805 31.29 66 0.801 0.369
2022-01-25 05:00:00.0 16402 29.34 23.42 29.34 25.04 80.7 1015.124 0 1.14 329.8 -1.744 -1.425 -3.169 28.86 66 0.807 0.369
2022-01-25 06:00:00.0 16403 27.86 24.43 27.86 22.99 81.6 1016.362 0 9.08 339.3 -1.587 -1.201 -2.788 27.3 66 0.813 0.369
2022-01-25 07:00:00.0 16404 26.69 24.41 26.69 21.69 78.56 1017.992 0 1.666 316 -0.935 -1.385 -2.32 26.22 66 0.805 0.369
2022-01-25 08:00:00.0 16405 26.36 22.85 26.36 18.84 70.89 1019.523 0 4.56 11.31 -0.867 -1.602 -2.469 25.6 66 0.808 0.369
2022-01-25 09:00:00.0 16406 24.91 19.89 24.91 16.6 69.15 1020.729 0 5.787 5.625 10.47 -5.577 4.889 24.47 66 0.807 0.368
2022-01-25 10:00:00.0 16407 23.68 16.82 23.68 15.27 69.96 1021.833 0 6.533 352.3 27.41 -8.56 18.84 23.54 66 0.808 0.368
2022-01-25 11:00:00.0 16408 24.74 17.99 24.74 14.52 59.76 1022.671 0 4.516 352.6 75.77 -14.37 61.39 25.34 66 0.813 0.368
2022-01-25 12:00:00.0 16409 26.41 23.23 26.41 13.3 53.32 1023.141 0 0.438 15.12 134.1 -48.11 86 28.37 66 0.813 0.368
2022-01-25 13:00:00.0 16410 28.53 26.48 28.53 10.75 41.61 1022.81 0 2.718 312.1 160.4 -71.17 89.2 31.5 66 0.819 0.368
2022-01-25 14:00:00.0 16411 29.45 27.05 29.45 8.14 42.63 1022.64 0 0.614 273.9 140.5 -78.85 61.69 32.66 66 0.817 0.368
2022-01-25 15:00:00.0 16412 28.68 26.23 28.68 8.82 42.35 1022.695 0 1.403 56.86 101.7 -79.8 21.92 31.26 66 0.81 0.368
2022-01-25 16:00:00.0 16413 29.18 25.14 29.18 8.96 41.81 1022.996 0 7.541 1.711 101.1 -83.3 17.75 30.64 66 0.821 0.368
2022-01-25 17:00:00.0 16414 28.83 24.51 28.83 8.35 41.71 1023.506 0 0.482 304.3 55.18 -80.3 -25.14 29.7 66 0.816 0.368
2022-01-25 18:00:00.0 16415 27.35 26.49 27.35 8.45 47.3 1024.428 0 0 342.3 7.102 -67.35 -60.25 27.65 66 0.823 0.368
2022-01-25 19:00:00.0 16416 24.96 24.39 24.96 8.93 54.37 1025.462 0 0 318.5 -3.125 -59.28 -62.41 23.43 66 0.819 0.368
2022-01-25 20:00:00.0 16417 19.28 19.28 19.28 9.5 72.41 1026.104 0 0 318.8 -3.025 -49.01 -52.04 17.34 66 0.822 0.368
2022-01-25 21:00:00.0 16418 14.5 14.5 14.5 8.21 82.5 1026.422 0 0 354 -2.922 -46.28 -49.2 11.88 66 0.827 0.368
2022-01-25 22:00:00.0 16419 12.74 12.74 12.74 8.86 85.7 1026.696 0 0 353.5 -2.865 -48.7 -51.56 9.57 66 0.827 0.368
2022-01-25 23:00:00.0 16420 10.84 10.84 10.84 7.691 87.8 1027.389 0 0 322.6 -2.637 -39.88 -42.52 7.39 66 0.826 0.367
2022-01-26 00:00:00.0 16421 9.91 9.91 9.91 7.061 87.9 1027.994 0 0 323.8 -3.294 -31.72 -35.01 6.374 66 0.831 0.367
2022-01-26 01:00:00.0 16422 8.14 8.14 8.14 5.459 88.5 1028.011 0 0 323.7 -3.261 -25.73 -28.99 4.177 66 0.821 0.367
2022-01-26 02:00:00.0 16423 7.051 7.051 7.051 4.428 89.3 1028.22 0 0 324 -3.308 -22.05 -25.36 3.163 66 0.824 0.367
2022-01-26 03:00:00.0 16424 5.864 5.864 5.864 3.057 87.3 1028.666 0 0 331.9 -3.25 -20.86 -24.11 2.563 66 0.824 0.367
2022-01-26 04:00:00.0 16425 4.273 4.273 4.273 1.394 87.2 1029.56 0 0 306.1 -3.017 -19.36 -22.37 0.516 66 0.827 0.367
2022-01-26 05:00:00.0 16426 3.098 3.098 3.098 0.004 86.4 1030.221 0 0 330.5 -3.202 -18.96 -22.16 -0.329 66 0.823 0.367
2022-01-26 06:00:00.0 16427 1.521 1.521 1.521 -1.756 86 1030.859 0 0 330.5 -3.114 -17.06 -20.17 -2.556 66 0.823 0.367
2022-01-26 07:00:00.0 16428 0.147 0.147 0.147 -3.242 85 1031.789 0 0 8.08 -3.072 -16.61 -19.68 -4.211 66 0.819 0.367
2022-01-26 08:00:00.0 16429 -0.999 -0.999 -0.999 -4.503 84.4 1032.667 0 0 6.384 -2.008 -16.53 -18.54 -5.236 66 0.82 0.367
2022-01-26 09:00:00.0 16430 0.465 0.465 0.465 -3.021 85.3 1033.474 0 0 248 49.3 -17.09 32.21 -3.697 66 0.811 0.367
2022-01-26 10:00:00.0 16431 8.2 8.2 8.2 3.682 79.35 1034.034 0 0 86.3 124.2 -25.74 98.4 8.96 66 0.813 0.367
2022-01-26 11:00:00.0 16432 15.46 15.46 15.46 6.261 56.2 1034.386 0 0 260.4 148.7 -47.3 101.4 17.95 66 0.805 0.366
2022-01-26 12:00:00.0 16433 16.62 16.48 16.62 2.902 53.24 1034.299 0 0.351 247.6 213 -78.55 134.5 22.17 66 0.806 0.366
2022-01-26 13:00:00.0 16434 18.8 18.8 18.8 1.937 42.18 1033.414 0 0 187.7 175 -89.2 85.9 24.67 66 0.804 0.366
2022-01-26 14:00:00.0 16435 20.9 20.9 20.9 0.722 38.34 1032.461 0 0.088 210.5 165.3 -95 70.26 30.02 66 0.797 0.366
2022-01-26 15:00:00.0 16436 21.96 21.96 21.96 0.802 37.37 1031.981 0 0 191.8 143.1 -93.3 49.8 29.11 66 0.801 0.366
2022-01-26 16:00:00.0 16437 22.71 22.66 22.71 0.356 36.44 1031.654 0 0 266.5 107.2 -90.1 17.04 27.46 66 0.804 0.367
2022-01-26 17:00:00.0 16438 22.42 22.2 22.42 1.093 39.73 1031.752 0 0 207.6 54.42 -84.3 -29.89 25.26 66 0.8 0.366
2022-01-26 18:00:00.0 16439 20.72 20.7 20.72 1.719 46.7 1031.752 0 0 164.4 7.158 -69 -61.84 22 66 0.807 0.366
2022-01-26 19:00:00.0 16440 14.35 14.35 14.35 3.128 69.62 1032.265 0 0 122.1 -3.367 -52.26 -55.63 12.34 66 0.804 0.366
2022-01-26 20:00:00.0 16441 10.59 10.59 10.59 4.055 78.31 1032.288 0 0 0.241 -2.802 -48.88 -51.68 6.686 66 0.807 0.366
2022-01-26 21:00:00.0 16442 7.545 7.545 7.545 2.978 82.3 1032.492 0 0 349.7 -3.223 -47.66 -50.88 4.292 66 0.805 0.366
2022-01-26 22:00:00.0 16443 5.428 5.428 5.428 1.459 83.8 1032.202 0 0 349.8 -3.178 -43.44 -46.62 1.841 66 0.806 0.366
2022-01-26 23:00:00.0 16444 3.308 3.308 3.308 -0.285 85.5 1031.994 0 0 349.6 -3.296 -40.18 -43.48 -0.084 66 0.807 0.366
2022-01-27 00:00:00.0 16445 2.136 2.136 2.136 -1.253 85.2 1031.695 0 0 349.8 -3.313 -36.37 -39.69 -1.521 66 0.799 0.366
2022-01-27 01:00:00.0 16446 0.475 0.475 0.475 -2.897 84.9 1031.081 0 0 349.6 -3.134 -33.65 -36.78 -2.981 66 0.795 0.366
2022-01-27 02:00:00.0 16447 -0.638 -0.638 -0.638 -4.068 84.9 1030.55 0 0 349.7 -3.048 -31.69 -34.73 -4.011 66 0.79 0.366
2022-01-27 03:00:00.0 16448 -2.314 -2.314 -2.314 -5.884 83.9 1030.239 0 0 349.7 -3.119 -30.39 -33.51 -5.303 66 0.791 0.366
2022-01-27 04:00:00.0 16449 -3.694 -3.694 -3.694 -7.399 83.2 1029.885 0 0 349.6 -3.003 -28.88 -31.88 -6.751 66 0.786 0.366
2022-01-27 05:00:00.0 16450 -4.355 -4.355 -4.355 -8.18 82.7 1029.704 0 0 349.4 -3.061 -28.54 -31.6 -7.224 66 0.772 0.366
2022-01-27 06:00:00.0 16451 -5.521 -5.521 -5.521 -9.43 82.4 1029.586 0 0 349.4 -3.106 -27.8 -30.91 -8.36 66 0.773 0.366
2022-01-27 07:00:00.0 16452 -6.053 -6.053 -6.053 -10.1 81.3 1029.595 0 0 349.2 -3.042 -27.03 -30.07 -9.2 66 0.769 0.365
2022-01-27 08:00:00.0 16453 -6.666 -6.666 -6.666 -10.9 81 1029.936 0 0 349.3 -2.111 -26.56 -28.67 -9.52 66 0.759 0.365
2022-01-27 09:00:00.0 16454 -4.982 -4.982 -4.982 -9.12 82.1 1029.711 0 0 349.4 50.77 -25 25.77 -7.649 66 0.753 0.365